createdAt,value
2022-09-15T00:02:49.309Z,90.12
2022-09-15T00:07:57.806Z,90.08
2022-09-15T00:13:06.246Z,89.76001
2022-09-15T00:18:14.014Z,89.42
2022-09-15T00:23:22.425Z,89.81
2022-09-15T00:28:30.553Z,89.83001
2022-09-15T00:33:38.487Z,89.72
2022-09-15T00:38:46.523Z,89.58
2022-09-15T00:43:53.875Z,89.5
2022-09-15T00:49:00.348Z,89.16
2022-09-15T00:54:06.943Z,87.32
2022-09-15T00:59:14.774Z,85.0
2022-09-15T01:04:22.032Z,84.64
2022-09-15T01:09:30.543Z,84.55001
2022-09-15T01:14:38.230Z,84.67
2022-09-15T01:19:45.031Z,84.34
2022-09-15T01:24:52.700Z,84.52
2022-09-15T01:30:01.300Z,84.68
2022-09-15T01:35:10.630Z,84.42
2022-09-15T01:40:18.628Z,84.32
2022-09-15T01:45:26.837Z,84.36
2022-09-15T01:50:34.848Z,83.94
2022-09-15T01:55:42.577Z,83.51001
2022-09-15T02:00:50.340Z,83.43
2022-09-15T02:05:58.017Z,83.65001
2022-09-15T02:11:05.452Z,83.49
2022-09-15T02:17:43.944Z,83.44001
2022-09-15T02:22:50.516Z,83.89
2022-09-15T02:27:57.294Z,84.26001
2022-09-15T02:33:04.288Z,84.22
2022-09-15T02:38:11.845Z,84.43
2022-09-15T02:43:19.439Z,83.75
2022-09-15T02:48:26.489Z,83.88
2022-09-15T02:53:34.528Z,83.15001
2022-09-15T02:58:42.345Z,82.5
2022-09-15T03:03:49.398Z,82.34
2022-09-15T03:08:57.989Z,82.36
2022-09-15T03:14:05.160Z,82.43
2022-09-15T03:19:12.947Z,82.40001
2022-09-15T03:24:20.137Z,82.46
2022-09-15T03:29:27.989Z,82.38
2022-09-15T03:34:35.943Z,82.62
2022-09-15T03:39:43.833Z,82.3
2022-09-15T03:44:52.416Z,82.13
2022-09-15T03:49:59.940Z,81.87
2022-09-15T03:55:07.338Z,81.71
2022-09-15T04:00:13.762Z,81.41001
2022-09-15T04:05:22.089Z,81.24
2022-09-15T04:10:30.487Z,81.51999
2022-09-15T04:15:43.062Z,81.72
2022-09-15T04:20:50.912Z,81.67
2022-09-15T04:25:58.210Z,81.38
2022-09-15T04:31:06.521Z,81.03
2022-09-15T04:36:13.703Z,80.96
2022-09-15T04:41:21.148Z,81.02
2022-09-15T04:46:28.694Z,80.82
2022-09-15T04:51:36.547Z,80.67
2022-09-15T04:56:44.912Z,80.59
2022-09-15T05:01:52.501Z,80.72001
2022-09-15T05:07:00.776Z,80.44001
2022-09-15T05:12:09.168Z,80.22
2022-09-15T05:17:16.378Z,79.96
2022-09-15T05:22:24.251Z,79.47
2022-09-15T05:27:32.599Z,78.72
2022-09-15T05:32:40.281Z,78.57
2022-09-15T05:37:48.071Z,78.15
2022-09-15T05:42:55.924Z,77.89
2022-09-15T05:48:03.443Z,77.83
2022-09-15T05:53:10.006Z,77.05
2022-09-15T05:58:18.316Z,76.93
2022-09-15T06:03:25.699Z,76.43
2022-09-15T06:08:33.575Z,77.1
2022-09-15T06:13:42.556Z,76.89
2022-09-15T06:18:50.233Z,77.06
2022-09-15T06:23:58.312Z,76.72
2022-09-15T06:29:07.356Z,76.63
2022-09-15T06:34:14.619Z,76.58
2022-09-15T06:39:23.502Z,76.30001
2022-09-15T06:44:30.995Z,76.05
2022-09-15T06:49:38.167Z,75.86
2022-09-15T06:54:46.201Z,74.74
2022-09-15T06:59:54.257Z,74.78
2022-09-15T07:05:01.653Z,74.82
2022-09-15T07:10:09.471Z,74.88
2022-09-15T07:15:16.882Z,75.1
2022-09-15T07:20:24.172Z,74.76
2022-09-15T07:25:32.263Z,74.44
2022-09-15T07:30:40.219Z,74.73001
2022-09-15T07:35:47.801Z,74.85
2022-09-15T07:40:55.859Z,74.1
2022-09-15T07:46:04.162Z,74.33
2022-09-15T07:51:11.913Z,73.26
2022-09-15T07:56:19.875Z,72.46
2022-09-15T08:01:29.467Z,67.3
2022-09-15T08:06:36.413Z,69.8
2022-09-15T08:11:43.844Z,67.8
2022-09-15T08:16:51.055Z,66.72
2022-09-15T08:21:57.913Z,70.02
2022-09-15T08:27:05.275Z,70.8
2022-09-15T08:32:13.692Z,71.46
2022-09-15T08:37:21.280Z,71.62
2022-09-15T08:42:29.038Z,69.96
2022-09-15T08:47:37.223Z,71.02
2022-09-15T08:52:45.289Z,71.16001
2022-09-15T08:57:54.247Z,71.02
2022-09-15T09:03:00.740Z,71.44001
2022-09-15T09:08:07.940Z,71.26
2022-09-15T09:13:16.141Z,71.64
2022-09-15T09:18:23.668Z,71.56
2022-09-15T09:23:31.420Z,71.85
2022-09-15T09:28:38.914Z,72.36
2022-09-15T09:33:46.494Z,72.35
2022-09-15T09:38:53.059Z,72.89
2022-09-15T09:44:00.901Z,78.02
2022-09-15T09:49:08.608Z,77.46
2022-09-15T09:54:15.292Z,78.55
2022-09-15T09:59:22.355Z,78.17
2022-09-15T10:04:31.567Z,80.49
2022-09-15T10:09:40.329Z,81.26
2022-09-15T10:14:47.345Z,79.78
2022-09-15T10:19:55.233Z,78.82
2022-09-15T10:25:02.611Z,82.44
2022-09-15T10:30:09.733Z,82.06
2022-09-15T10:35:17.384Z,82.58
2022-09-15T10:40:26.330Z,87.16001
2022-09-15T10:45:33.462Z,87.16001
2022-09-15T10:50:41.438Z,87.93
2022-09-15T10:55:49.980Z,88.12
2022-09-15T11:00:58.798Z,86.92
2022-09-15T11:06:05.760Z,87.0
2022-09-15T11:11:12.637Z,86.39
2022-09-15T11:16:21.254Z,85.36
2022-09-15T11:21:27.938Z,85.62
2022-09-15T11:26:36.737Z,84.62001
2022-09-15T11:31:44.561Z,79.2
2022-09-15T11:36:51.528Z,78.31
2022-09-15T11:41:59.773Z,77.99
2022-09-15T11:47:07.186Z,77.21
2022-09-15T11:52:15.241Z,77.6
2022-09-15T11:57:21.610Z,77.0
2022-09-15T12:02:30.045Z,77.13
2022-09-15T12:07:37.496Z,76.71
2022-09-15T12:12:45.658Z,77.66
2022-09-15T12:17:53.968Z,77.25
2022-09-15T12:23:00.739Z,76.24
2022-09-15T12:28:09.210Z,76.21
2022-09-15T12:33:17.064Z,76.4
2022-09-15T12:38:25.417Z,76.01
2022-09-15T12:43:33.381Z,75.67
2022-09-15T12:48:41.002Z,75.29
2022-09-15T12:53:47.780Z,76.0
2022-09-15T12:58:55.200Z,75.48
2022-09-15T13:04:02.821Z,75.19001
2022-09-15T13:09:10.660Z,75.07
2022-09-15T13:14:18.418Z,74.89
2022-09-15T13:19:26.332Z,74.14
2022-09-15T13:24:34.548Z,73.71
2022-09-15T13:29:41.427Z,73.53
2022-09-15T13:34:48.652Z,73.53
2022-09-15T13:39:56.188Z,73.46
2022-09-15T13:45:04.122Z,73.58
2022-09-15T13:50:11.483Z,72.78
2022-09-15T13:55:19.012Z,72.74
2022-09-15T14:00:26.492Z,71.82
2022-09-15T14:05:35.493Z,72.06
2022-09-15T14:10:42.300Z,71.68
2022-09-15T14:15:50.216Z,72.35
2022-09-15T14:20:57.861Z,73.68
2022-09-15T14:26:05.457Z,74.6
2022-09-15T14:31:12.474Z,75.38
2022-09-15T14:36:18.790Z,75.37
2022-09-15T14:41:26.643Z,77.14
2022-09-15T14:46:33.840Z,78.02
2022-09-15T14:51:41.023Z,78.88
2022-09-15T14:56:50.283Z,77.96
2022-09-15T15:01:58.029Z,76.38
2022-09-15T15:07:05.866Z,76.62
2022-09-15T15:12:14.938Z,75.29
2022-09-15T15:17:22.489Z,75.25
2022-09-15T15:22:32.447Z,75.06
2022-09-15T15:27:41.061Z,74.98001
2022-09-15T15:32:48.776Z,75.12001
2022-09-15T15:37:56.110Z,74.99
2022-09-15T15:43:03.988Z,75.13
2022-09-15T15:48:11.885Z,75.38
2022-09-15T15:53:20.191Z,75.75
2022-09-15T15:58:27.522Z,75.95
2022-09-15T16:03:34.767Z,76.91
2022-09-15T16:08:42.776Z,76.61
2022-09-15T16:13:50.342Z,77.48001
2022-09-15T16:18:58.691Z,77.56
2022-09-15T16:24:06.571Z,77.69001
2022-09-15T16:29:14.302Z,78.3
2022-09-15T16:34:21.890Z,79.12
2022-09-15T16:39:30.713Z,79.6
2022-09-15T16:44:38.024Z,79.97
2022-09-15T16:49:45.790Z,80.43
2022-09-15T16:54:53.095Z,81.21
2022-09-15T17:00:01.409Z,81.31
2022-09-15T17:05:08.748Z,81.50001
2022-09-15T17:10:16.730Z,82.0
2022-09-15T17:15:23.119Z,82.3
2022-09-15T17:20:31.025Z,82.66001
2022-09-15T17:25:38.246Z,83.22001
2022-09-15T17:30:45.440Z,83.54
2022-09-15T17:35:53.265Z,83.52
2022-09-15T17:41:00.308Z,84.01999
2022-09-15T17:46:07.892Z,84.66001
2022-09-15T17:51:14.870Z,84.67
2022-09-15T17:56:23.173Z,84.61
2022-09-15T18:01:29.890Z,84.88
2022-09-15T18:06:37.701Z,85.06
2022-09-15T18:11:50.663Z,85.1
2022-09-15T18:16:57.225Z,84.88
2022-09-15T18:22:05.088Z,84.78
2022-09-15T18:27:12.207Z,85.68
2022-09-15T18:32:19.392Z,86.04
2022-09-15T18:37:27.742Z,86.53
2022-09-15T18:42:35.147Z,86.76001
2022-09-15T18:47:43.340Z,87.2
2022-09-15T18:52:57.041Z,87.39
2022-09-15T18:58:03.828Z,87.66001
2022-09-15T19:03:10.941Z,87.71
2022-09-15T19:08:18.865Z,87.54001
2022-09-15T19:13:26.656Z,87.34
2022-09-15T19:18:34.035Z,87.21
2022-09-15T19:23:41.700Z,87.09
2022-09-15T19:28:49.902Z,86.15001
2022-09-15T19:33:56.055Z,85.36
2022-09-15T19:39:03.939Z,84.98
2022-09-15T19:44:11.711Z,84.92
2022-09-15T19:49:20.247Z,84.69001
2022-09-15T19:54:42.759Z,84.34
2022-09-15T19:59:50.335Z,86.66
2022-09-15T20:04:58.972Z,87.82001
2022-09-15T20:10:07.609Z,88.22001
2022-09-15T20:15:15.029Z,88.26
2022-09-15T20:20:22.001Z,88.41001
2022-09-15T20:25:30.308Z,88.37001
2022-09-15T20:30:38.246Z,88.14
2022-09-15T20:35:44.882Z,88.22001
2022-09-15T20:40:52.937Z,87.98
2022-09-15T20:45:59.924Z,87.92
2022-09-15T20:51:07.457Z,88.07
2022-09-15T20:56:15.545Z,87.94001
2022-09-15T21:01:22.792Z,87.5
2022-09-15T21:06:31.013Z,87.08
2022-09-15T21:11:42.730Z,87.02
2022-09-15T21:16:50.760Z,86.64001
2022-09-15T21:21:57.376Z,86.66
2022-09-15T21:27:04.599Z,86.14
2022-09-15T21:32:12.423Z,85.84
2022-09-15T21:37:19.940Z,85.58001
2022-09-15T21:42:42.492Z,85.65001
2022-09-15T21:43:09.984Z,85.65001
2022-09-15T21:48:11.992Z,85.7
2022-09-15T21:48:31.140Z,85.7
2022-09-15T21:53:30.744Z,85.62
2022-09-15T21:58:38.981Z,85.55
2022-09-15T22:03:46.609Z,86.0
2022-09-15T22:08:53.891Z,86.7
2022-09-15T22:14:01.211Z,86.78
2022-09-15T22:19:10.243Z,86.06
2022-09-15T22:24:17.504Z,85.15
2022-09-15T22:29:24.712Z,85.17
2022-09-15T22:34:33.752Z,85.80001
2022-09-15T22:39:42.292Z,86.03
2022-09-15T22:44:51.330Z,85.26
2022-09-15T22:49:57.996Z,84.8
2022-09-15T22:55:06.086Z,84.13
2022-09-15T23:00:13.692Z,83.42
2022-09-15T23:05:21.950Z,84.72
2022-09-15T23:10:28.762Z,85.74
2022-09-15T23:15:36.588Z,85.92
2022-09-15T23:20:44.756Z,86.49
2022-09-15T23:25:54.049Z,87.02
2022-09-15T23:31:00.693Z,86.84
2022-09-15T23:36:07.933Z,86.47
2022-09-15T23:41:15.164Z,86.8
2022-09-15T23:46:23.718Z,86.95
2022-09-15T23:51:31.744Z,87.2
2022-09-15T23:56:40.019Z,87.09
